Time;durP1;ratioP1;P1;durP2;ratioP2;P2;SDS_P1;SDS_P2;PMS_P1;PMS_P2;Temp;Humidity;BMP_temperature;BMP_pressure;BME280_temperature;BME280_humidity;BME280_pressure;Samples;Min_cycle;Max_cycle;Signal;HPM_P1;HPM_P2
2022/04/25 00:00:07;;;;;;;14.30;12.97;;;11.50;99.90;;;;;;5058294;28;20190;-84
2022/04/25 00:02:33;;;;;;;15.25;13.75;;;11.80;99.90;;;;;;5050775;28;20247;-84
2022/04/25 00:04:58;;;;;;;15.30;13.77;;;11.20;99.90;;;;;;5068963;28;20269;-84
2022/04/25 00:07:24;;;;;;;15.60;13.97;;;11.20;99.90;;;;;;5063489;28;20213;-84
2022/04/25 00:09:49;;;;;;;15.90;14.30;;;11.30;99.90;;;;;;5052018;28;20277;-84
2022/04/25 00:12:15;;;;;;;15.27;13.60;;;11.10;99.90;;;;;;5071235;28;20209;-84
2022/04/25 00:14:41;;;;;;;15.70;14.10;;;11.30;99.90;;;;;;5063567;28;20630;-85
2022/04/25 00:17:07;;;;;;;15.90;13.43;;;11.40;99.90;;;;;;5057129;28;20209;-85
2022/04/25 00:19:32;;;;;;;14.93;13.33;;;11.20;99.90;;;;;;5063086;28;20447;-84
2022/04/25 00:21:58;;;;;;;14.90;13.40;;;11.10;99.90;;;;;;5064527;28;20181;-84
2022/04/25 00:24:24;;;;;;;14.50;13.13;;;11.30;99.90;;;;;;5051436;28;20634;-84
2022/04/25 00:26:49;;;;;;;14.77;13.37;;;11.30;99.90;;;;;;5064740;28;20216;-83
2022/04/25 00:29:15;;;;;;;16.90;15.13;;;11.60;99.90;;;;;;5048394;28;20198;-84
2022/04/25 00:31:40;;;;;;;15.57;14.03;;;11.20;99.90;;;;;;5053514;28;20258;-83
2022/04/25 00:34:06;;;;;;;16.77;14.63;;;11.20;99.90;;;;;;5070750;28;20201;-84
2022/04/25 00:36:32;;;;;;;15.50;13.90;;;11.40;99.90;;;;;;5068475;28;20235;-84
2022/04/25 00:38:57;;;;;;;16.23;14.60;;;11.40;99.90;;;;;;5064416;28;20474;-84
2022/04/25 00:41:26;;;;;;;16.03;14.43;;;11.30;99.90;;;;;;5061772;28;20650;-84
2022/04/25 00:43:55;;;;;;;16.52;14.82;;;11.30;99.90;;;;;;5066792;28;20649;-84
2022/04/25 00:46:22;;;;;;;16.85;15.15;;;11.40;99.90;;;;;;5066616;28;20284;-84
2022/04/25 00:48:48;;;;;;;17.23;15.45;;;11.50;99.90;;;;;;5071009;28;20210;-83
2022/04/25 00:51:15;;;;;;;17.38;15.68;;;11.50;99.90;;;;;;5069495;28;20187;-85
2022/04/25 00:53:42;;;;;;;17.92;16.23;;;12.00;99.90;;;;;;5066006;28;20276;-84
2022/04/25 00:56:08;;;;;;;20.02;17.92;;;11.50;99.90;;;;;;5065281;28;20751;-83
2022/04/25 00:58:35;;;;;;;19.45;17.55;;;11.50;99.90;;;;;;5049721;28;20680;-84
2022/04/25 01:01:01;;;;;;;20.13;18.02;;;11.30;99.90;;;;;;5069033;28;20178;-84
2022/04/25 01:03:26;;;;;;;19.70;17.60;;;11.70;99.90;;;;;;5070228;28;20219;-84
2022/04/25 01:05:52;;;;;;;20.40;18.30;;;11.20;99.90;;;;;;5062895;28;20437;-84
2022/04/25 01:08:19;;;;;;;19.35;17.35;;;11.50;99.90;;;;;;5068672;28;20209;-84
2022/04/25 01:10:44;;;;;;;19.05;17.05;;;11.50;99.90;;;;;;5053769;28;20188;-84
2022/04/25 01:13:13;;;;;;;20.13;18.07;;;11.40;99.90;;;;;;5067798;28;20370;-84
2022/04/25 01:15:39;;;;;;;20.77;18.58;;;11.40;99.90;;;;;;5044859;28;20674;-84
2022/04/25 01:18:05;;;;;;;21.00;18.85;;;11.40;99.90;;;;;;5056349;28;20201;-84
2022/04/25 01:20:30;;;;;;;21.40;19.20;;;11.30;99.90;;;;;;5052508;28;20181;-84
2022/04/25 01:28:38;;;;;;;23.23;18.90;;;11.30;99.90;;;;;;5066160;28;20265;-84
2022/04/25 01:31:04;;;;;;;20.10;18.00;;;11.50;99.90;;;;;;5071371;28;20190;-84
2022/04/25 01:33:29;;;;;;;17.80;16.00;;;11.50;99.90;;;;;;5054039;28;20190;-85
2022/04/25 01:35:55;;;;;;;18.67;16.77;;;11.40;99.90;;;;;;5065184;28;20521;-83
2022/04/25 01:38:21;;;;;;;19.52;17.42;;;11.30;99.90;;;;;;5068435;28;20669;-85
2022/04/25 01:40:47;;;;;;;20.47;18.37;;;11.40;99.90;;;;;;5089672;22;20331;-81
2022/04/25 01:43:12;;;;;;;18.23;16.37;;;11.20;99.90;;;;;;5067714;28;20425;-81
2022/04/25 01:45:41;;;;;;;18.10;16.30;;;11.10;99.90;;;;;;5087098;28;20223;-82
2022/04/25 01:48:07;;;;;;;20.30;18.30;;;11.20;99.90;;;;;;5075812;28;20234;-81
2022/04/25 01:50:32;;;;;;;18.90;16.95;;;10.80;99.90;;;;;;5073899;28;20284;-81
2022/04/25 01:52:58;;;;;;;22.10;19.90;;;11.20;99.90;;;;;;5049487;28;20751;-81
2022/04/25 01:55:23;;;;;;;20.40;18.30;;;11.00;99.90;;;;;;5055627;28;20218;-81
2022/04/25 01:57:49;;;;;;;21.47;19.47;;;11.40;99.90;;;;;;5052676;28;20178;-81
2022/04/25 02:00:15;;;;;;;22.03;19.63;;;10.90;99.90;;;;;;5055033;28;20558;-81
2022/04/25 02:02:40;;;;;;;19.60;17.50;;;11.10;99.90;;;;;;5052437;28;20675;-81
2022/04/25 02:05:06;;;;;;;20.13;18.03;;;11.10;99.90;;;;;;5055473;28;20443;-80
2022/04/25 02:07:32;;;;;;;21.08;18.98;;;11.00;99.90;;;;;;5050185;28;20186;-81
2022/04/25 02:09:58;;;;;;;21.53;19.33;;;10.80;99.90;;;;;;5055986;28;20193;-80
2022/04/25 02:12:24;;;;;;;22.13;20.03;;;11.10;99.90;;;;;;5046704;28;20177;-80
2022/04/25 02:14:49;;;;;;;23.20;20.70;;;11.30;99.90;;;;;;5043875;28;20186;-80
2022/04/25 02:17:15;;;;;;;20.63;18.53;;;11.20;99.90;;;;;;5048072;28;20239;-81
2022/04/25 02:19:43;;;;;;;21.70;19.60;;;11.40;99.90;;;;;;5060638;28;20260;-81
2022/04/25 02:22:10;;;;;;;21.35;19.15;;;11.60;99.90;;;;;;5057910;28;20666;-81
2022/04/25 02:24:36;;;;;;;21.05;18.95;;;10.90;99.90;;;;;;5052766;28;20202;-81
2022/04/25 02:27:03;;;;;;;20.92;18.80;;;11.00;99.90;;;;;;5049351;28;20185;-82
2022/04/25 02:29:30;;;;;;;21.92;19.65;;;11.10;99.90;;;;;;5055803;28;20189;-81
2022/04/25 02:31:55;;;;;;;23.45;20.95;;;11.10;99.90;;;;;;5071528;28;20777;-80
2022/04/25 02:34:21;;;;;;;22.10;19.70;;;10.80;99.90;;;;;;5054759;28;20275;-82
2022/04/25 02:36:47;;;;;;;22.63;20.23;;;10.40;99.90;;;;;;5051856;28;20220;-81
2022/04/25 02:39:12;;;;;;;23.60;21.00;;;11.40;99.90;;;;;;5064799;28;20182;-81
2022/04/25 02:41:38;;;;;;;23.17;20.77;;;10.20;99.90;;;;;;5062330;28;20304;-80
2022/04/25 02:44:04;;;;;;;24.03;21.03;;;10.30;99.90;;;;;;5056147;28;20548;-82
2022/04/25 02:46:29;;;;;;;23.30;20.90;;;10.80;99.90;;;;;;5052418;28;20190;-81
2022/04/25 02:48:55;;;;;;;23.70;21.00;;;11.00;99.90;;;;;;5069640;28;20238;-81
2022/04/25 02:51:21;;;;;;;23.40;20.85;;;10.70;99.90;;;;;;5060597;28;20205;-81
2022/04/25 02:53:47;;;;;;;23.33;20.93;;;10.60;99.90;;;;;;5057132;28;20194;-81
2022/04/25 02:56:12;;;;;;;24.83;21.50;;;11.20;99.90;;;;;;5055432;28;20700;-81
2022/04/25 02:58:38;;;;;;;23.57;21.07;;;11.00;99.90;;;;;;5067494;28;20192;-82
2022/04/25 03:01:05;;;;;;;23.73;21.27;;;10.70;99.90;;;;;;5059568;28;20254;-81
2022/04/25 03:03:35;;;;;;;24.00;21.50;;;11.00;99.90;;;;;;5067093;28;20506;-81
2022/04/25 03:06:02;;;;;;;24.45;21.48;;;10.40;99.90;;;;;;5051602;28;20190;-81
2022/04/25 03:08:28;;;;;;;25.00;22.33;;;10.60;99.90;;;;;;5062602;28;20189;-81
2022/04/25 03:10:54;;;;;;;22.63;20.17;;;10.30;99.90;;;;;;5062551;28;20208;-81
2022/04/25 03:13:20;;;;;;;23.00;20.60;;;10.60;99.90;;;;;;5064751;28;20287;-81
2022/04/25 03:15:47;;;;;;;24.50;21.90;;;9.70;99.90;;;;;;5043988;28;20222;-81
2022/04/25 03:18:19;;;;;;;26.35;22.42;;;10.80;99.90;;;;;;5054436;28;20185;-81
2022/04/25 03:20:46;;;;;;;25.98;23.00;;;10.30;99.90;;;;;;5080268;28;20923;-82
2022/04/25 03:23:14;;;;;;;23.65;21.25;;;10.70;99.90;;;;;;5072650;28;20186;-81
2022/04/25 03:25:39;;;;;;;24.50;21.67;;;10.20;99.90;;;;;;5051833;28;20273;-80
2022/04/25 03:28:05;;;;;;;25.90;22.23;;;9.90;99.90;;;;;;5066432;28;20328;-81
2022/04/25 03:30:30;;;;;;;26.00;23.30;;;9.60;99.90;;;;;;5063955;28;20288;-80
2022/04/25 03:32:56;;;;;;;25.17;22.47;;;9.70;99.90;;;;;;5048224;28;20201;-83
2022/04/25 03:35:22;;;;;;;26.77;23.50;;;9.00;99.90;;;;;;5047235;28;20210;-83
2022/04/25 03:37:49;;;;;;;27.20;23.27;;;9.60;99.90;;;;;;5052457;28;20757;-81
2022/04/25 03:40:15;;;;;;;26.25;23.52;;;9.30;99.90;;;;;;5063466;28;20467;-83
2022/04/25 03:42:41;;;;;;;26.37;23.40;;;9.50;99.90;;;;;;5057018;28;20250;-82
2022/04/25 03:45:09;;;;;;;27.50;24.05;;;8.80;99.90;;;;;;5051105;28;20487;-82
2022/04/25 03:47:36;;;;;;;27.10;24.02;;;9.40;99.90;;;;;;5052777;28;20496;-81
2022/04/25 03:50:02;;;;;;;26.98;23.98;;;9.30;99.90;;;;;;5059067;28;20189;-82
2022/04/25 03:52:28;;;;;;;29.77;24.98;;;9.40;99.90;;;;;;5060193;28;20253;-82
2022/04/25 03:57:38;;;;;;;28.88;23.67;;;9.10;99.90;;;;;;5060450;28;20192;-82
2022/04/25 04:00:06;;;;;;;26.63;23.20;;;9.30;99.90;;;;;;5052889;28;20186;-82
2022/04/25 04:02:32;;;;;;;26.08;22.77;;;9.70;99.90;;;;;;5054267;28;20185;-82
2022/04/25 04:04:58;;;;;;;26.38;22.83;;;9.10;99.90;;;;;;5057841;28;20871;-82
2022/04/25 04:07:24;;;;;;;25.60;22.20;;;9.30;99.90;;;;;;5058065;28;20186;-82
2022/04/25 04:09:49;;;;;;;28.23;23.13;;;9.20;99.90;;;;;;5055771;28;20190;-82
2022/04/25 04:12:17;;;;;;;30.17;22.67;;;9.50;99.90;;;;;;5056117;28;20250;-82
2022/04/25 04:14:43;;;;;;;28.63;23.10;;;9.30;99.90;;;;;;5058515;28;20440;-82
2022/04/25 04:17:09;;;;;;;26.52;23.50;;;8.80;99.90;;;;;;5050048;28;20401;-81
2022/04/25 04:19:38;;;;;;;28.53;23.50;;;9.20;99.90;;;;;;5062969;28;20597;-81
2022/04/25 04:22:05;;;;;;;29.83;24.60;;;9.20;99.90;;;;;;5057808;28;20693;-82
2022/04/25 04:24:32;;;;;;;28.95;23.98;;;9.10;99.90;;;;;;5056430;28;20264;-83
2022/04/25 04:27:02;;;;;;;30.02;23.30;;;9.50;99.90;;;;;;5061803;28;20212;-82
2022/04/25 04:29:32;;;;;;;25.88;22.00;;;8.80;99.90;;;;;;5048338;28;20190;-83
2022/04/25 04:31:59;;;;;;;27.15;21.88;;;9.40;99.90;;;;;;5054895;28;20259;-82
2022/04/25 04:34:25;;;;;;;30.85;27.55;;;9.40;99.90;;;;;;5056555;28;20525;-82
2022/04/25 04:36:51;;;;;;;31.23;25.70;;;9.80;99.90;;;;;;5047087;28;20261;-81
2022/04/25 04:39:17;;;;;;;29.45;23.00;;;9.00;99.90;;;;;;5058452;28;20490;-82
2022/04/25 04:41:43;;;;;;;26.25;22.58;;;9.40;99.90;;;;;;5056486;28;20217;-82
2022/04/25 04:44:08;;;;;;;24.83;21.83;;;9.40;99.90;;;;;;5055411;28;20545;-83
2022/04/25 04:46:34;;;;;;;24.90;22.30;;;9.50;99.90;;;;;;5048879;28;20186;-81
2022/04/25 04:48:59;;;;;;;26.43;22.33;;;9.60;99.90;;;;;;5058565;28;20185;-83
2022/04/25 04:51:25;;;;;;;29.60;22.00;;;9.60;99.90;;;;;;5060395;28;20214;-82
2022/04/25 04:53:50;;;;;;;29.77;21.97;;;10.10;99.90;;;;;;5056740;28;20194;-82
2022/04/25 04:56:16;;;;;;;24.60;21.90;;;9.60;99.90;;;;;;5054486;28;20212;-77
2022/04/25 04:58:41;;;;;;;28.07;22.90;;;9.90;99.90;;;;;;5061518;28;20185;-76
2022/04/25 05:01:07;;;;;;;28.60;23.43;;;10.10;99.90;;;;;;5058186;28;20201;-77
2022/04/25 05:03:34;;;;;;;28.00;22.30;;;9.30;99.90;;;;;;5055843;28;20197;-77
2022/04/25 05:05:59;;;;;;;25.80;22.75;;;9.80;99.90;;;;;;5050117;28;20415;-76
2022/04/25 05:08:25;;;;;;;27.03;22.77;;;10.00;99.90;;;;;;5054105;28;20184;-77
2022/04/25 05:10:51;;;;;;;25.90;23.17;;;9.80;99.90;;;;;;5052439;28;20237;-76
2022/04/25 05:13:17;;;;;;;27.23;23.65;;;9.40;99.90;;;;;;5048214;28;20712;-77
2022/04/25 05:15:43;;;;;;;28.10;24.33;;;9.90;99.90;;;;;;5066221;28;20216;-77
2022/04/25 05:18:08;;;;;;;26.77;22.30;;;10.50;99.90;;;;;;5047838;28;20887;-77
2022/04/25 05:20:34;;;;;;;28.20;24.47;;;9.90;99.90;;;;;;5053618;28;20209;-76
2022/04/25 05:23:02;;;;;;;27.33;23.93;;;10.40;99.90;;;;;;5051338;28;20188;-77
2022/04/25 05:25:28;;;;;;;26.83;22.08;;;9.90;99.90;;;;;;5046183;28;20186;-77
2022/04/25 05:27:55;;;;;;;26.83;23.30;;;10.00;99.90;;;;;;5053391;28;20200;-77
2022/04/25 05:30:23;;;;;;;29.88;22.67;;;10.10;99.90;;;;;;5063665;28;20315;-77
2022/04/25 05:32:53;;;;;;;27.52;21.63;;;10.10;99.90;;;;;;5056696;28;20271;-76
2022/04/25 05:35:21;;;;;;;27.92;23.15;;;10.10;99.90;;;;;;5044002;28;20206;-77
2022/04/25 05:37:47;;;;;;;23.52;20.95;;;10.30;99.90;;;;;;5047961;28;20511;-78
2022/04/25 05:40:14;;;;;;;23.98;21.17;;;10.40;99.90;;;;;;5056224;28;20186;-78
2022/04/25 05:42:41;;;;;;;26.40;21.75;;;10.50;99.90;;;;;;5053361;28;20209;-78
2022/04/25 05:45:09;;;;;;;23.67;21.17;;;10.80;99.90;;;;;;5050802;28;20417;-79
2022/04/25 05:47:35;;;;;;;25.92;21.67;;;10.60;99.90;;;;;;5043971;28;20182;-80
2022/04/25 05:52:46;;;;;;;24.05;21.48;;;11.20;99.90;;;;;;5049299;28;20284;-75
2022/04/25 05:55:12;;;;;;;24.60;19.83;;;11.00;99.90;;;;;;5051044;28;20297;-78
2022/04/25 05:57:38;;;;;;;23.10;20.47;;;11.20;99.90;;;;;;5050785;28;20441;-76
2022/04/25 06:00:05;;;;;;;22.07;19.77;;;11.60;99.90;;;;;;5054316;28;20199;-76
2022/04/25 06:02:33;;;;;;;23.00;19.95;;;11.40;99.90;;;;;;5051408;28;20219;-75
2022/04/25 06:04:59;;;;;;;22.30;19.90;;;11.70;99.90;;;;;;5059657;28;20206;-74
2022/04/25 06:07:24;;;;;;;19.53;17.50;;;11.50;99.90;;;;;;5054776;28;20659;-74
2022/04/25 06:09:50;;;;;;;20.07;17.97;;;12.00;99.90;;;;;;5047754;28;20183;-74
2022/04/25 06:12:15;;;;;;;19.10;17.20;;;12.10;99.90;;;;;;5048774;28;20620;-75
2022/04/25 06:14:41;;;;;;;19.63;17.30;;;12.40;99.90;;;;;;5061996;28;20187;-75
2022/04/25 06:17:07;;;;;;;19.47;17.47;;;12.10;99.90;;;;;;5041304;28;20315;-75
2022/04/25 06:19:32;;;;;;;17.97;16.30;;;12.40;99.90;;;;;;5065354;28;20187;-75
2022/04/25 06:21:58;;;;;;;17.60;15.90;;;12.40;99.90;;;;;;5054851;28;20205;-75
2022/04/25 06:24:23;;;;;;;18.33;16.37;;;12.50;99.90;;;;;;5049948;28;20185;-77
2022/04/25 06:26:49;;;;;;;17.07;15.30;;;12.60;99.90;;;;;;5042814;28;20212;-78
2022/04/25 06:29:15;;;;;;;18.70;15.97;;;12.90;99.90;;;;;;5070727;28;20227;-78
2022/04/25 06:31:42;;;;;;;17.33;15.52;;;14.10;99.90;;;;;;5047588;28;20463;-77
2022/04/25 06:34:08;;;;;;;17.45;15.70;;;13.70;99.90;;;;;;5057846;28;20223;-77
2022/04/25 06:36:34;;;;;;;17.10;15.30;;;13.50;99.90;;;;;;5046815;28;20244;-78
2022/04/25 06:39:03;;;;;;;16.38;14.68;;;13.50;99.90;;;;;;5049151;28;20184;-77
2022/04/25 06:41:30;;;;;;;19.02;17.10;;;14.10;99.90;;;;;;5057423;28;20216;-77
2022/04/25 06:43:58;;;;;;;15.80;14.20;;;14.00;99.90;;;;;;5050840;28;20209;-77
2022/04/25 06:46:24;;;;;;;14.25;12.88;;;15.00;99.90;;;;;;5040946;28;20253;-81
2022/04/25 06:51:34;;;;;;;15.25;13.85;;;16.80;98.70;;;;;;5051895;28;20662;-77
2022/04/25 06:53:59;;;;;;;18.30;16.50;;;18.10;98.80;;;;;;5049919;28;20189;-78
2022/04/25 06:56:25;;;;;;;16.17;14.53;;;18.70;94.40;;;;;;5046667;28;20224;-77
2022/04/25 06:58:50;;;;;;;16.80;15.13;;;17.10;94.60;;;;;;5055567;28;20196;-77
2022/04/25 07:01:16;;;;;;;16.43;14.30;;;16.00;96.10;;;;;;5047459;28;20215;-77
2022/04/25 07:03:42;;;;;;;16.00;14.57;;;15.50;97.80;;;;;;5051707;28;20189;-74
2022/04/25 07:06:07;;;;;;;17.40;15.80;;;15.50;97.90;;;;;;5042049;28;20598;-74
2022/04/25 07:08:33;;;;;;;17.47;15.83;;;14.70;98.20;;;;;;5048164;28;20186;-80
2022/04/25 07:10:59;;;;;;;18.10;16.30;;;15.20;98.80;;;;;;5063317;28;20220;-78
2022/04/25 07:13:24;;;;;;;17.13;15.53;;;14.90;99.70;;;;;;5052219;28;20268;-78
2022/04/25 07:15:50;;;;;;;17.40;15.77;;;14.50;99.90;;;;;;5048209;28;20479;-78
2022/04/25 07:18:17;;;;;;;15.03;13.63;;;14.70;99.90;;;;;;5054938;28;20562;-78
2022/04/25 07:20:42;;;;;;;15.00;13.60;;;14.70;99.80;;;;;;5073541;28;20205;-89
2022/04/25 07:31:15;;;;;;;15.82;14.32;;;16.60;95.60;;;;;;5069902;22;20324;-64
2022/04/25 07:33:43;;;;;;;13.30;12.10;;;16.80;95.10;;;;;;5067499;28;20291;-65
2022/04/25 07:36:09;;;;;;;13.77;12.57;;;17.50;93.20;;;;;;5063435;28;20246;-63
2022/04/25 07:38:36;;;;;;;14.13;12.82;;;17.50;92.20;;;;;;5070661;28;20203;-64
2022/04/25 07:41:02;;;;;;;14.95;13.60;;;17.10;92.00;;;;;;5070494;28;20525;-66
2022/04/25 07:43:29;;;;;;;13.07;11.88;;;16.90;92.90;;;;;;5056605;28;20209;-68
2022/04/25 07:45:55;;;;;;;14.68;13.30;;;16.80;92.90;;;;;;5062245;28;20271;-66
2022/04/25 07:48:21;;;;;;;14.20;13.00;;;17.20;92.50;;;;;;5064170;28;20241;-65
2022/04/25 07:50:47;;;;;;;13.38;12.18;;;17.60;91.30;;;;;;5063410;28;20626;-66
2022/04/25 07:53:14;;;;;;;14.37;13.17;;;16.90;91.60;;;;;;5068634;28;20212;-66
2022/04/25 07:55:39;;;;;;;13.15;11.95;;;16.90;92.10;;;;;;5064938;28;20463;-65
2022/04/25 07:58:08;;;;;;;13.20;12.10;;;16.90;92.30;;;;;;5061552;28;20238;-66
2022/04/25 08:00:35;;;;;;;15.25;13.85;;;16.60;92.50;;;;;;5056981;28;20645;-65
2022/04/25 08:03:02;;;;;;;13.98;12.73;;;16.50;92.90;;;;;;5065794;28;20683;-65
2022/04/25 08:05:28;;;;;;;12.80;11.60;;;16.00;92.90;;;;;;5065963;28;20194;-67
2022/04/25 08:07:53;;;;;;;17.35;15.75;;;16.50;93.00;;;;;;5069566;28;20189;-66
2022/04/25 08:10:19;;;;;;;13.97;12.73;;;16.60;92.70;;;;;;5066249;28;20185;-65
2022/04/25 08:18:13;;;;;;;15.38;13.93;;;16.50;92.50;;;;;;5058156;28;20184;-62
2022/04/25 08:20:40;;;;;;;14.50;13.07;;;16.40;93.30;;;;;;5067150;28;20338;-61
2022/04/25 08:23:11;;;;;;;14.40;13.10;;;15.70;93.30;;;;;;5070929;28;20212;-62
2022/04/25 08:25:41;;;;;;;14.82;13.57;;;15.60;93.80;;;;;;5064102;28;20181;-63
2022/04/25 08:28:07;;;;;;;15.02;13.77;;;16.40;94.10;;;;;;5071041;28;20580;-60
2022/04/25 08:30:33;;;;;;;17.13;15.52;;;16.10;93.30;;;;;;5062711;28;20193;-59
2022/04/25 08:32:59;;;;;;;13.50;12.23;;;16.80;93.00;;;;;;5064624;28;20309;-61
2022/04/25 08:35:25;;;;;;;13.63;12.45;;;16.40;92.50;;;;;;5061526;28;20209;-60
2022/04/25 08:37:51;;;;;;;13.10;11.80;;;16.50;92.50;;;;;;5071129;28;20196;-67
2022/04/25 08:40:17;;;;;;;13.00;11.90;;;16.50;92.40;;;;;;5056266;28;20584;-67
2022/04/25 08:42:44;;;;;;;14.10;12.80;;;16.60;91.90;;;;;;5067560;28;20438;-70
2022/04/25 08:45:10;;;;;;;13.00;11.90;;;16.60;92.30;;;;;;5066185;28;20230;-68
2022/04/25 08:47:53;;;;;;;13.93;12.73;;;16.60;92.10;;;;;;5064165;28;20173;-66
2022/04/25 08:50:20;;;;;;;13.52;12.25;;;16.20;92.20;;;;;;5066493;28;20951;-67
2022/04/25 08:52:46;;;;;;;13.48;12.38;;;16.40;92.90;;;;;;5068406;28;20212;-65
2022/04/25 08:55:13;;;;;;;14.13;12.73;;;16.10;92.60;;;;;;5065813;28;20219;-61
2022/04/25 08:57:41;;;;;;;13.18;12.07;;;15.60;93.10;;;;;;5069930;28;20325;-66
2022/04/25 09:00:07;;;;;;;13.93;12.63;;;15.80;94.00;;;;;;5064449;28;20173;-66
2022/04/25 09:02:34;;;;;;;14.88;13.55;;;15.90;94.00;;;;;;5061556;28;20658;-66
2022/04/25 09:05:01;;;;;;;15.23;13.82;;;15.50;93.90;;;;;;5070552;28;20235;-66
2022/04/25 09:07:27;;;;;;;13.93;12.63;;;15.90;94.30;;;;;;5074456;28;20183;-59
2022/04/25 09:09:54;;;;;;;12.20;11.10;;;15.50;94.00;;;;;;5068353;28;20256;-64
2022/04/25 09:12:19;;;;;;;11.75;10.73;;;15.70;94.40;;;;;;5067236;28;20842;-62
2022/04/25 09:14:46;;;;;;;13.37;12.07;;;15.90;94.00;;;;;;5067433;28;20200;-63
2022/04/25 09:17:12;;;;;;;13.52;12.35;;;15.70;94.20;;;;;;5063216;28;20228;-61
2022/04/25 09:19:39;;;;;;;14.00;12.80;;;16.10;94.10;;;;;;5068760;28;20669;-69
2022/04/25 09:22:08;;;;;;;14.10;12.75;;;15.40;94.40;;;;;;5067624;28;20681;-71
2022/04/25 09:24:41;;;;;;;14.10;12.90;;;15.30;95.10;;;;;;5068378;28;20757;-69
2022/04/25 09:27:07;;;;;;;15.32;13.93;;;15.80;94.80;;;;;;5065602;28;20567;-64
2022/04/25 09:29:34;;;;;;;15.07;13.67;;;15.80;94.50;;;;;;5063565;28;20243;-64
2022/04/25 09:32:01;;;;;;;14.90;13.60;;;15.60;94.40;;;;;;5056850;28;20455;-64
2022/04/25 09:37:13;;;;;;;13.75;12.45;;;16.10;94.20;;;;;;5064341;28;20232;-63
2022/04/25 09:39:44;;;;;;;14.85;13.38;;;16.30;94.00;;;;;;5066615;28;20180;-63
2022/04/25 09:42:16;;;;;;;14.18;12.88;;;15.90;93.60;;;;;;5062387;28;20182;-63
2022/04/25 09:45:00;;;;;;;15.07;13.57;;;16.20;93.60;;;;;;5068086;28;20258;-63
2022/04/25 09:47:32;;;;;;;14.43;13.13;;;16.10;93.60;;;;;;5056082;28;20234;-64
2022/04/25 09:50:05;;;;;;;13.68;12.35;;;16.40;93.50;;;;;;5063154;28;20181;-63
2022/04/25 09:52:33;;;;;;;14.60;13.20;;;16.30;93.60;;;;;;5062737;28;20211;-63
2022/04/25 09:55:14;;;;;;;13.70;12.40;;;16.40;93.40;;;;;;5065961;28;20205;-63
2022/04/25 09:57:41;;;;;;;13.52;12.32;;;16.60;93.60;;;;;;5078571;28;20245;-63
2022/04/25 10:00:07;;;;;;;16.10;14.60;;;16.90;92.90;;;;;;5067651;28;20182;-63
2022/04/25 10:02:38;;;;;;;14.27;12.70;;;17.10;92.80;;;;;;5067795;28;20479;-61
2022/04/25 10:05:15;;;;;;;12.60;11.43;;;17.80;91.30;;;;;;5065427;28;20212;-65
2022/04/25 10:07:42;;;;;;;14.48;13.18;;;18.00;91.00;;;;;;5064227;28;20267;-61
2022/04/25 10:10:12;;;;;;;14.60;13.30;;;17.90;91.00;;;;;;5067994;28;20591;-63
2022/04/25 10:12:38;;;;;;;13.32;12.23;;;17.90;90.60;;;;;;5069058;28;20598;-61
2022/04/25 10:15:08;;;;;;;13.88;12.57;;;18.20;90.30;;;;;;5068452;28;20669;-62
2022/04/25 10:17:40;;;;;;;14.05;12.73;;;17.70;90.40;;;;;;5057409;28;20303;-62
2022/04/25 10:20:08;;;;;;;15.60;14.20;;;17.30;90.80;;;;;;5069089;28;20180;-62
2022/04/25 10:22:35;;;;;;;13.82;12.63;;;17.20;91.50;;;;;;5069105;28;20216;-62
2022/04/25 10:25:06;;;;;;;13.65;12.35;;;17.50;91.00;;;;;;5060997;28;20193;-62
2022/04/25 10:27:35;;;;;;;12.45;11.35;;;17.70;90.60;;;;;;5057868;28;20544;-61
2022/04/25 10:30:17;;;;;;;12.85;11.80;;;17.60;90.70;;;;;;5068612;28;20181;-61
2022/04/25 10:32:43;;;;;;;13.75;12.55;;;17.50;90.70;;;;;;5058281;28;20214;-62
2022/04/25 10:35:30;;;;;;;16.15;14.70;;;17.50;90.60;;;;;;5064886;28;20192;-62
2022/04/25 10:37:56;;;;;;;14.90;13.50;;;17.40;90.90;;;;;;5066016;28;20258;-62
2022/04/25 10:46:13;;;;;;;13.80;12.65;;;17.30;91.80;;;;;;5056049;28;20196;-62
2022/04/25 10:49:05;;;;;;;14.52;13.13;;;16.90;92.90;;;;;;5065036;28;20185;-62
2022/04/25 10:51:38;;;;;;;14.52;13.25;;;17.10;92.40;;;;;;5067866;28;20223;-67
2022/04/25 10:54:05;;;;;;;13.43;12.32;;;16.60;92.60;;;;;;5085392;28;20218;-63
2022/04/25 10:56:32;;;;;;;14.57;13.27;;;16.80;93.00;;;;;;5070188;28;20634;-64
2022/04/25 10:59:21;;;;;;;15.13;13.73;;;17.20;90.50;;;;;;5062562;28;20177;-63
2022/04/25 11:01:47;;;;;;;15.30;13.90;;;17.40;91.50;;;;;;5066545;28;20177;-68
2022/04/25 11:04:14;;;;;;;14.30;13.00;;;17.30;91.70;;;;;;5071272;28;20218;-64
2022/04/25 11:06:39;;;;;;;15.57;14.23;;;17.50;90.70;;;;;;5070547;28;20195;-63
2022/04/25 11:09:05;;;;;;;15.23;13.83;;;17.10;91.00;;;;;;5065184;28;20196;-62
2022/04/25 11:11:51;;;;;;;16.05;14.45;;;17.20;91.10;;;;;;5064928;28;20696;-62
2022/04/25 11:14:18;;;;;;;14.73;13.40;;;17.40;91.50;;;;;;5056456;28;20281;-64
2022/04/25 11:17:13;;;;;;;15.25;13.88;;;18.20;90.30;;;;;;5071024;28;20265;-64
2022/04/25 11:19:46;;;;;;;14.40;13.10;;;18.00;89.10;;;;;;5067677;28;20522;-62
2022/04/25 11:22:37;;;;;;;17.83;14.68;;;18.30;89.60;;;;;;5073707;28;20204;-62
2022/04/25 11:25:27;;;;;;;15.60;14.23;;;18.70;88.40;;;;;;5064298;28;20619;-63
2022/04/25 11:28:10;;;;;;;15.20;13.68;;;18.40;87.10;;;;;;5060908;28;20187;-73
2022/04/25 11:30:37;;;;;;;14.70;13.40;;;18.00;87.20;;;;;;5061918;28;20665;-64
2022/04/25 11:33:04;;;;;;;13.82;12.63;;;17.60;87.70;;;;;;5059239;28;20190;-62
2022/04/25 11:35:30;;;;;;;13.95;12.60;;;17.40;87.50;;;;;;5060229;28;20208;-59
2022/04/25 11:37:57;;;;;;;14.20;13.00;;;17.40;87.60;;;;;;5065395;28;20196;-60
2022/04/25 11:40:23;;;;;;;15.55;14.15;;;16.80;87.90;;;;;;5062516;28;20272;-63
2022/04/25 11:42:49;;;;;;;14.25;12.95;;;17.10;90.40;;;;;;5063616;28;20208;-66
2022/04/25 11:45:15;;;;;;;14.50;13.00;;;16.80;90.50;;;;;;5061809;28;20282;-65
2022/04/25 11:47:40;;;;;;;14.33;13.00;;;16.90;91.10;;;;;;5062630;28;20200;-63
2022/04/25 11:50:12;;;;;;;15.30;13.90;;;16.90;91.70;;;;;;5072238;28;20177;-62
2022/04/25 11:53:06;;;;;;;14.20;13.00;;;16.20;91.90;;;;;;5065850;28;20273;-63
2022/04/25 11:55:34;;;;;;;14.43;13.13;;;16.40;93.20;;;;;;5061760;28;20228;-63
2022/04/25 11:58:00;;;;;;;14.70;13.40;;;16.10;95.80;;;;;;5069503;28;20344;-63
2022/04/25 12:00:26;;;;;;;14.77;13.38;;;15.60;96.80;;;;;;5068688;28;20184;-64
2022/04/25 12:02:53;;;;;;;17.50;15.80;;;15.90;98.80;;;;;;5066349;28;20185;-63
2022/04/25 12:05:32;;;;;;;16.77;15.10;;;15.60;99.90;;;;;;5065007;28;20446;-63
2022/04/25 12:16:14;;;;;;;16.35;14.82;;;15.40;99.90;;;;;;5064840;28;20275;-62
2022/04/25 12:18:51;;;;;;;17.15;15.35;;;15.10;99.90;;;;;;5063602;28;20197;-62
2022/04/25 12:21:18;;;;;;;18.52;16.90;;;15.30;99.90;;;;;;5061991;28;20227;-62
2022/04/25 12:23:50;;;;;;;19.92;18.02;;;15.50;99.90;;;;;;5068757;28;20287;-64
2022/04/25 12:26:26;;;;;;;14.75;13.45;;;15.30;99.90;;;;;;5059008;28;20173;-62
2022/04/25 12:29:00;;;;;;;17.42;15.85;;;15.40;99.90;;;;;;5068854;28;20214;-62
2022/04/25 12:31:30;;;;;;;18.58;16.88;;;15.40;99.90;;;;;;5069821;28;20200;-69
2022/04/25 12:34:04;;;;;;;16.52;15.02;;;15.10;99.90;;;;;;5063370;28;20212;-67
2022/04/25 12:36:29;;;;;;;15.57;14.07;;;15.30;99.90;;;;;;5063002;28;20307;-62
2022/04/25 12:39:00;;;;;;;16.43;14.93;;;15.50;99.90;;;;;;5063912;28;20316;-63
2022/04/25 12:41:30;;;;;;;14.93;13.52;;;15.40;99.90;;;;;;5060625;28;20185;-62
2022/04/25 12:44:11;;;;;;;15.13;13.73;;;15.80;99.90;;;;;;5058059;28;20927;-64
2022/04/25 12:46:42;;;;;;;15.05;13.65;;;16.20;99.90;;;;;;5065751;28;20267;-64
2022/04/25 12:49:31;;;;;;;16.60;15.00;;;15.60;99.90;;;;;;5068813;28;20181;-61
2022/04/25 12:51:59;;;;;;;15.35;13.75;;;15.70;99.90;;;;;;5055323;28;20195;-63
2022/04/25 12:54:27;;;;;;;14.10;12.80;;;15.90;99.90;;;;;;5057523;28;20572;-61
2022/04/25 12:57:05;;;;;;;17.55;15.85;;;15.50;99.90;;;;;;5063329;28;20738;-62
2022/04/25 12:59:34;;;;;;;15.32;14.02;;;15.50;99.90;;;;;;5071095;28;20234;-62
2022/04/25 13:02:07;;;;;;;15.23;13.82;;;15.30;99.90;;;;;;5065731;28;20275;-63
2022/04/25 13:04:48;;;;;;;14.85;13.45;;;16.10;99.90;;;;;;5069821;28;20573;-61
2022/04/25 13:07:14;;;;;;;14.70;13.50;;;16.10;99.90;;;;;;5065078;28;20333;-64
2022/04/25 13:09:39;;;;;;;14.82;13.52;;;16.00;99.90;;;;;;5061567;28;20189;-63
2022/04/25 13:12:16;;;;;;;16.37;14.67;;;15.80;99.90;;;;;;5073304;28;20676;-63
2022/04/25 13:14:42;;;;;;;15.48;14.07;;;15.90;99.90;;;;;;5074026;28;20688;-62